Time,TemperatureF,DewpointF,PressureIn,WindDirection,WindDirectionDegrees,WindSpeedMPH,WindSpeedGustMPH,Humidity,HourlyPrecipIn,Conditions,Clouds,dailyrainin,SolarRadiationWatts/m^2,SoftwareType,DateUTC
2013-06-22 10:00:00,78.0,66.0,-100.00,WSW,247,9.0,-999.0,66,-99.99,,,-99.99,401.359985,,2013-06-22 14:00:00,
2013-06-22 11:00:00,79.0,67.0,-100.00,WSW,247,9.0,-999.0,65,-99.99,,,-99.99,454.720001,,2013-06-22 15:00:00,
2013-06-22 11:43:00,79.0,67.0,-100.00,WSW,247,9.0,-999.0,65,-99.99,,,-99.99,454.720001,,2013-06-22 15:43:00,
2013-06-22 11:53:00,79.0,67.0,-100.00,WSW,247,9.0,-999.0,65,-99.99,,,-99.99,454.720001,,2013-06-22 15:53:00,
2013-06-22 12:00:00,82.0,68.0,-100.00,WSW,247,7.0,-999.0,62,-99.99,,,-99.99,532.440002,,2013-06-22 16:00:00,
2013-06-22 12:43:00,82.0,68.0,-100.00,WSW,247,7.0,-999.0,62,-99.99,,,-99.99,532.440002,,2013-06-22 16:43:00,
2013-06-22 12:52:00,82.0,68.0,-100.00,WSW,247,7.0,-999.0,62,-99.99,,,-99.99,532.440002,,2013-06-22 16:52:00,
2013-06-22 13:00:00,84.0,69.0,-100.00,WSW,247,3.0,-999.0,61,-99.99,,,-99.99,698.320007,,2013-06-22 17:00:00,
2013-06-22 13:43:00,84.0,69.0,-100.00,WSW,247,3.0,-999.0,61,-99.99,,,-99.99,698.320007,,2013-06-22 17:43:00,
2013-06-22 13:52:00,84.0,69.0,-100.00,WSW,247,3.0,-999.0,61,-99.99,,,-99.99,698.320007,,2013-06-22 17:52:00,
2013-06-22 14:00:00,85.0,70.0,-100.00,WSW,247,0.0,-999.0,61,-99.99,,,-99.99,585.799988,,2013-06-22 18:00:00,
2013-06-22 14:43:00,85.0,70.0,-100.00,WSW,247,0.0,-999.0,61,-99.99,,,-99.99,585.799988,,2013-06-22 18:43:00,
2013-06-22 14:52:00,85.0,70.0,-100.00,WSW,247,0.0,-999.0,61,-99.99,,,-99.99,585.799988,,2013-06-22 18:52:00,
2013-06-22 15:00:00,87.0,71.0,-100.00,WSW,247,1.0,-999.0,58,-99.99,,,-99.99,745.880005,,2013-06-22 19:00:00,
2013-06-22 15:43:00,87.0,71.0,-100.00,WSW,247,1.0,-999.0,58,-99.99,,,-99.99,745.880005,,2013-06-22 19:43:00,
2013-06-22 15:53:00,87.0,71.0,-100.00,WSW,247,1.0,-999.0,58,-99.99,,,-99.99,745.880005,,2013-06-22 19:53:00,
2013-06-22 16:00:00,87.0,69.0,-100.00,WSW,247,4.0,-999.0,54,-99.99,,,-99.99,378.160004,,2013-06-22 20:00:00,
2013-06-22 16:43:00,87.0,69.0,-100.00,WSW,247,4.0,-999.0,54,-99.99,,,-99.99,378.160004,,2013-06-22 20:43:00,
2013-06-22 16:53:00,87.0,69.0,-100.00,WSW,247,4.0,-999.0,54,-99.99,,,-99.99,378.160004,,2013-06-22 20:53:00,
2013-06-22 17:00:00,78.0,69.0,-100.00,SW,225,11.0,-999.0,75,0.45,,,-99.99,27.840000,,2013-06-22 21:00:00,
2013-06-22 17:43:00,78.0,69.0,-100.00,SW,225,11.0,-999.0,75,0.45,,,-99.99,27.840000,,2013-06-22 21:43:00,
2013-06-22 17:53:00,78.0,69.0,-100.00,SW,225,11.0,-999.0,75,0.45,,,-99.99,27.840000,,2013-06-22 21:53:00,
2013-06-22 18:00:00,68.0,65.0,-100.00,SSE,157,8.0,-999.0,88,0.72,,,-99.99,6.960000,,2013-06-22 22:00:00,
2013-06-22 18:43:00,68.0,65.0,-100.00,SSE,157,8.0,-999.0,88,0.72,,,-99.99,6.960000,,2013-06-22 22:43:00,
2013-06-22 18:52:00,68.0,65.0,-100.00,SSE,157,8.0,-999.0,88,0.72,,,-99.99,6.960000,,2013-06-22 22:52:00,
2013-06-22 19:00:00,67.0,65.0,-100.00,SSE,157,2.0,-999.0,92,0.06,,,-99.99,13.920000,,2013-06-22 23:00:00,
2013-06-22 19:43:00,67.0,65.0,-100.00,SSE,157,2.0,-999.0,92,0.06,,,-99.99,13.920000,,2013-06-22 23:43:00,
2013-06-22 19:53:00,67.0,65.0,-100.00,SSE,157,2.0,-999.0,92,0.06,,,-99.99,13.920000,,2013-06-22 23:53:00,
2013-06-22 21:00:00,70.0,68.0,-100.00,SW,225,6.0,-999.0,91,-99.99,,,-99.99,13.920000,,2013-06-23 01:00:00,
2013-06-22 21:32:00,70.0,68.0,-100.00,SW,225,6.0,-999.0,91,-99.99,,,-99.99,13.920000,,2013-06-23 01:32:00,
2013-06-22 21:42:00,70.0,68.0,-100.00,SW,225,6.0,-999.0,91,-99.99,,,-99.99,13.920000,,2013-06-23 01:42:00,
2013-06-22 21:52:00,70.0,68.0,-100.00,SW,225,6.0,-999.0,91,-99.99,,,-99.99,13.920000,,2013-06-23 01:52:00,
2013-06-22 22:00:00,72.0,67.0,-100.00,SSW,202,5.0,-999.0,84,-99.99,,,-99.99,2.320000,,2013-06-23 02:00:00,
2013-06-22 22:41:00,72.0,67.0,-100.00,SSW,202,5.0,-999.0,84,-99.99,,,-99.99,2.320000,,2013-06-23 02:41:00,
2013-06-22 22:52:00,72.0,67.0,-100.00,SSW,202,5.0,-999.0,84,-99.99,,,-99.99,2.320000,,2013-06-23 02:52:00,
2013-06-22 23:00:00,72.0,67.0,-100.00,SSW,202,6.0,-999.0,84,-99.99,,,-99.99,0.000000,,2013-06-23 03:00:00,
2013-06-22 23:31:00,72.0,67.0,-100.00,SSW,202,6.0,-999.0,84,-99.99,,,-99.99,0.000000,,2013-06-23 03:31:00,
2013-06-22 23:41:00,72.0,67.0,-100.00,SSW,202,6.0,-999.0,84,-99.99,,,-99.99,0.000000,,2013-06-23 03:41:00,
2013-06-22 23:52:00,72.0,67.0,-100.00,SSW,202,6.0,-999.0,84,-99.99,,,-99.99,0.000000,,2013-06-23 03:52:00,